Time;durP1;ratioP1;P1;durP2;ratioP2;P2;SDS_P1;SDS_P2;PMS_P1;PMS_P2;Temp;Humidity;BMP_temperature;BMP_pressure;BME280_temperature;BME280_humidity;BME280_pressure;Samples;Min_cycle;Max_cycle;Signal;HPM_P1;HPM_P2
2021/12/28 00:01:19;;;;;;;;;8.00;8.00;;;;;16.73;57.74;99418.13;5070749;28;8778;-61
2021/12/28 00:03:45;;;;;;;;;6.75;6.75;;;;;16.73;57.89;99406.72;5070717;28;9723;-61
2021/12/28 00:06:12;;;;;;;;;7.00;7.00;;;;;16.75;58.22;99410.19;5070162;28;8773;-59
2021/12/28 00:08:40;;;;;;;;;8.00;7.00;;;;;16.73;58.19;99402.31;5070649;28;9654;-59
2021/12/28 00:11:06;;;;;;;;;5.00;5.00;;;;;16.76;57.69;99401.34;5070662;28;9559;-59
2021/12/28 00:13:33;;;;;;;;;7.00;7.00;;;;;16.75;57.86;99404.94;5070271;28;9407;-59
2021/12/28 00:18:34;;;;;;;;;6.00;6.00;;;;;16.82;57.71;99399.44;5070121;28;9512;-61
2021/12/28 00:21:03;;;;;;;;;8.00;8.00;;;;;16.79;57.89;99403.94;5070512;28;9671;-59
2021/12/28 00:23:36;;;;;;;;;7.75;5.75;;;;;16.72;57.75;99391.84;5070730;28;9711;-59
2021/12/28 00:26:03;;;;;;;;;5.25;5.25;;;;;16.73;57.82;99397.03;5061814;28;9636;-59
2021/12/28 00:28:29;;;;;;;;;7.00;7.00;;;;;16.75;57.69;99397.03;5070142;28;9784;-60
2021/12/28 00:30:54;;;;;;;;;7.00;7.00;;;;;16.70;57.93;99391.88;5070569;28;9733;-60
2021/12/28 00:33:22;;;;;;;;;7.25;7.25;;;;;16.70;57.96;99393.63;5069739;28;8889;-61
2021/12/28 00:35:50;;;;;;;;;7.00;7.00;;;;;16.68;57.95;99400.72;5072121;28;8877;-61
2021/12/28 00:38:19;;;;;;;;;6.25;6.00;;;;;16.69;58.18;99398.03;5074507;28;10520;-61
2021/12/28 00:40:48;;;;;;;;;7.00;6.00;;;;;16.81;57.50;99399.47;5073392;28;9535;-61
2021/12/28 00:43:14;;;;;;;;;7.00;7.00;;;;;16.73;57.64;99401.44;5074129;28;9468;-61
2021/12/28 00:45:39;;;;;;;;;6.25;6.25;;;;;16.72;57.80;99391.84;5074224;28;9551;-61
2021/12/28 00:48:05;;;;;;;;;6.75;6.75;;;;;16.69;57.77;99392.75;5073395;28;8809;-60
2021/12/28 00:50:31;;;;;;;;;6.50;6.50;;;;;16.75;57.76;99389.13;5074394;28;8865;-60
2021/12/28 00:52:56;;;;;;;;;8.00;7.00;;;;;16.75;57.60;99389.97;5073971;28;9535;-60
2021/12/28 00:55:23;;;;;;;;;7.75;7.50;;;;;16.68;57.86;99382.28;5073310;28;8782;-60
2021/12/28 00:57:49;;;;;;;;;6.50;6.00;;;;;16.68;57.75;99387.56;5073480;28;8766;-60
2021/12/28 01:00:23;;;;;;;;;5.75;5.75;;;;;16.68;57.82;99387.56;5074297;28;9539;-60
2021/12/28 01:02:49;;;;;;;;;6.00;6.00;;;;;16.71;57.76;99380.44;5072743;28;9510;-60
2021/12/28 01:05:15;;;;;;;;;7.25;6.25;;;;;16.69;57.88;99379.59;5073822;28;9626;-60
2021/12/28 01:07:41;;;;;;;;;6.00;5.50;;;;;16.70;58.02;99377.81;5072764;28;8825;-60
2021/12/28 01:10:10;;;;;;;;;6.00;6.00;;;;;16.71;57.87;99366.38;5073629;28;8782;-60
2021/12/28 01:12:36;;;;;;;;;6.00;6.00;;;;;16.68;57.66;99364.69;5073671;28;8766;-59
2021/12/28 01:15:03;;;;;;;;;7.25;6.25;;;;;16.75;57.56;99362.75;5072665;28;9725;-60
2021/12/28 01:17:29;;;;;;;;;5.50;5.50;;;;;16.74;57.48;99355.75;5073433;28;9701;-60
2021/12/28 01:19:54;;;;;;;;;4.50;4.50;;;;;16.73;57.82;99351.38;5073139;28;9623;-60
2021/12/28 01:22:19;;;;;;;;;5.50;5.50;;;;;16.62;57.72;99354.31;5072905;28;8765;-60
2021/12/28 01:24:44;;;;;;;;;6.50;6.50;;;;;16.69;57.72;99352.34;5073212;28;8786;-59
2021/12/28 01:27:10;;;;;;;;;4.00;4.00;;;;;16.61;57.96;99347.28;5073271;28;8786;-60
2021/12/28 01:29:36;;;;;;;;;7.25;6.00;;;;;16.62;57.75;99356.94;5072791;28;8821;-60
2021/12/28 01:32:01;;;;;;;;;5.25;5.25;;;;;16.67;57.90;99351.56;5073046;28;8875;-60
2021/12/28 01:34:27;;;;;;;;;6.00;6.00;;;;;16.65;57.95;99351.59;5073206;28;9720;-60
2021/12/28 01:36:52;;;;;;;;;4.75;4.75;;;;;16.79;57.62;99353.88;5072253;28;8810;-60
2021/12/28 01:39:18;;;;;;;;;5.25;4.00;;;;;16.75;57.39;99353.09;5073361;28;8789;-60
2021/12/28 01:41:43;;;;;;;;;3.75;3.75;;;;;16.69;57.56;99349.72;5072839;28;9661;-60
2021/12/28 01:44:11;;;;;;;;;6.25;6.25;;;;;16.73;57.67;99354.00;5072703;28;8801;-60
2021/12/28 01:46:37;;;;;;;;;7.75;6.00;;;;;16.71;57.54;99361.97;5072065;28;8778;-60
2021/12/28 01:49:05;;;;;;;;;3.50;3.50;;;;;16.62;57.78;99366.63;5072828;28;9522;-60
2021/12/28 01:51:32;;;;;;;;;3.75;3.00;;;;;16.71;57.62;99350.56;5072617;28;9689;-61
2021/12/28 01:53:58;;;;;;;;;4.75;4.00;;;;;16.72;57.69;99360.22;5072907;28;9551;-60
2021/12/28 01:56:27;;;;;;;;;3.75;3.75;;;;;16.69;57.51;99347.09;5073105;28;9728;-61
2021/12/28 01:58:56;;;;;;;;;4.00;4.00;;;;;16.68;57.53;99350.66;5071705;28;8863;-60
2021/12/28 02:01:23;;;;;;;;;4.00;4.00;;;;;16.65;57.79;99353.34;5072755;28;9564;-61
2021/12/28 02:03:48;;;;;;;;;4.25;3.75;;;;;16.66;57.53;99353.31;5071834;28;9625;-60
2021/12/28 02:06:17;;;;;;;;;5.25;5.25;;;;;16.55;57.83;99342.16;5073050;28;9544;-61
2021/12/28 02:08:43;;;;;;;;;6.50;5.00;;;;;16.60;57.89;99350.88;5072587;28;8782;-61
2021/12/28 02:11:10;;;;;;;;;4.50;4.50;;;;;16.66;57.50;99358.59;5071975;28;10147;-61
2021/12/28 02:13:39;;;;;;;;;4.50;4.50;;;;;16.64;57.69;99357.78;5072797;28;9573;-61
2021/12/28 02:16:05;;;;;;;;;5.00;5.00;;;;;16.72;57.42;99353.16;5072466;28;10261;-61
2021/12/28 02:18:33;;;;;;;;;6.00;6.00;;;;;16.66;57.38;99345.41;5071817;28;9656;-60
2021/12/28 02:20:59;;;;;;;;;6.00;5.00;;;;;16.66;57.76;99347.19;5072137;28;9669;-61
2021/12/28 02:23:25;;;;;;;;;3.50;3.50;;;;;16.67;57.61;99338.38;5072333;28;10243;-61
2021/12/28 02:25:51;;;;;;;;;4.75;4.75;;;;;16.71;57.35;99338.25;5071483;28;9481;-61
2021/12/28 02:28:17;;;;;;;;;5.25;5.25;;;;;16.74;57.27;99332.91;5072340;28;8918;-61
2021/12/28 02:30:46;;;;;;;;;3.00;3.00;;;;;16.67;57.33;99336.63;5072047;28;9544;-60
2021/12/28 02:33:12;;;;;;;;;4.25;4.25;;;;;16.66;57.55;99342.78;5071508;28;8835;-60
2021/12/28 02:35:38;;;;;;;;;5.00;5.00;;;;;16.66;57.37;99341.91;5072235;28;9760;-60
2021/12/28 02:38:07;;;;;;;;;4.25;4.25;;;;;16.63;57.72;99342.88;5071953;28;8770;-60
2021/12/28 02:40:33;;;;;;;;;4.50;4.50;;;;;16.68;57.46;99340.13;5071360;28;9494;-60
2021/12/28 02:43:01;;;;;;;;;3.00;3.00;;;;;16.69;57.52;99342.69;5071777;28;10296;-61
2021/12/28 02:45:28;;;;;;;;;3.75;3.25;;;;;16.67;57.16;99339.25;5072009;28;9470;-61
2021/12/28 02:47:54;;;;;;;;;3.25;3.25;;;;;16.74;57.50;99327.63;5071295;28;9498;-61
2021/12/28 02:50:39;;;;;;;;;7.00;5.50;;;;;16.71;57.51;99338.25;5071812;28;9574;-61
2021/12/28 02:53:05;;;;;;;;;5.25;4.75;;;;;16.72;57.28;99334.69;5071793;28;8766;-61
2021/12/28 02:55:32;;;;;;;;;5.00;4.75;;;;;16.76;57.12;99336.34;5071864;28;9590;-61
2021/12/28 02:58:07;;;;;;;;;4.00;4.00;;;;;16.70;57.33;99333.03;5071873;28;8762;-61
2021/12/28 03:00:38;;;;;;;;;3.00;3.00;;;;;16.72;57.56;99325.94;5070965;28;9750;-61
2021/12/28 03:03:15;;;;;;;;;3.50;3.50;;;;;16.66;57.40;99324.34;5064210;28;9417;-62
2021/12/28 03:05:44;;;;;;;;;4.25;4.25;;;;;16.70;57.54;99314.56;5071592;28;10242;-61
2021/12/28 03:08:11;;;;;;;;;5.00;4.25;;;;;16.64;57.45;99306.84;5070831;28;9429;-61
2021/12/28 03:10:37;;;;;;;;;4.50;4.00;;;;;16.72;57.44;99312.78;5071813;28;9469;-61
2021/12/28 03:13:05;;;;;;;;;3.00;3.00;;;;;16.66;57.65;99308.53;5071092;28;9602;-61
2021/12/28 03:15:31;;;;;;;;;3.50;3.50;;;;;16.66;57.59;99312.94;5071097;28;9537;-61
2021/12/28 03:17:56;;;;;;;;;3.50;3.00;;;;;16.69;57.35;99315.47;5071239;28;10425;-61
2021/12/28 03:20:22;;;;;;;;;5.25;5.25;;;;;16.79;56.99;99303.78;5071561;28;8778;-61
2021/12/28 03:22:47;;;;;;;;;3.25;3.25;;;;;16.67;57.32;99298.84;5070759;28;8778;-61
2021/12/28 03:25:12;;;;;;;;;7.00;4.00;;;;;16.70;57.20;99310.16;5071229;28;8785;-61
2021/12/28 03:27:42;;;;;;;;;4.75;4.75;;;;;16.74;57.38;99298.63;5071131;28;8791;-61
2021/12/28 03:30:13;;;;;;;;;4.00;4.00;;;;;16.76;57.18;99294.16;5070752;28;8781;-61
2021/12/28 03:32:38;;;;;;;;;3.00;2.75;;;;;16.71;57.20;99292.59;5071422;28;10262;-61
2021/12/28 03:35:06;;;;;;;;;3.75;3.75;;;;;16.70;57.46;99286.44;5071302;28;9479;-61
2021/12/28 03:37:32;;;;;;;;;4.50;4.00;;;;;16.66;57.63;99282.16;5070861;28;8885;-60
2021/12/28 03:39:59;;;;;;;;;3.00;3.00;;;;;16.68;57.24;99277.75;5070839;28;9612;-60
2021/12/28 03:42:25;;;;;;;;;3.33;3.33;;;;;16.68;57.29;99276.88;5070522;28;9548;-60
2021/12/28 03:44:50;;;;;;;;;3.33;3.33;;;;;16.63;57.44;99271.72;5070790;28;9403;-60
2021/12/28 03:47:15;;;;;;;;;3.75;3.75;;;;;16.69;57.36;99274.16;5071097;28;12099;-61
2021/12/28 03:49:41;;;;;;;;;3.00;3.00;;;;;16.67;57.51;99268.09;5070122;28;8842;-61
2021/12/28 03:52:07;;;;;;;;;2.75;2.75;;;;;16.71;57.33;99266.25;5071028;28;8851;-61
2021/12/28 03:54:33;;;;;;;;;4.00;3.33;;;;;16.72;57.34;99265.34;5071087;28;8875;-61
2021/12/28 03:56:58;;;;;;;;;2.00;2.00;;;;;16.69;57.36;99262.75;5069869;28;11094;-60
2021/12/28 03:59:23;;;;;;;;;3.00;3.00;;;;;16.68;57.39;99261.06;5070934;28;9340;-61
2021/12/28 04:01:48;;;;;;;;;3.00;3.00;;;;;16.68;57.63;99259.28;5071002;28;8782;-61
2021/12/28 04:04:14;;;;;;;;;4.00;2.25;;;;;16.72;57.39;99263.53;5070451;28;8909;-61
2021/12/28 04:06:39;;;;;;;;;2.00;2.00;;;;;16.67;57.65;99257.56;5070751;28;8814;-60
2021/12/28 04:09:07;;;;;;;;;2.25;2.25;;;;;16.66;57.53;99255.81;5070658;28;8883;-61
2021/12/28 04:11:32;;;;;;;;;4.00;3.00;;;;;16.64;57.71;99248.88;5073187;28;8808;-60
2021/12/28 04:14:03;;;;;;;;;3.75;3.75;;;;;16.63;57.49;99249.78;5074547;28;9393;-60
2021/12/28 04:16:30;;;;;;;;;5.25;3.75;;;;;16.66;57.52;99247.03;5075077;28;8762;-60
2021/12/28 04:18:56;;;;;;;;;4.50;4.50;;;;;16.67;57.45;99244.38;5073907;28;9523;-60
2021/12/28 04:21:22;;;;;;;;;3.75;3.75;;;;;16.79;57.19;99246.66;5074643;28;9474;-60
2021/12/28 04:23:48;;;;;;;;;2.67;2.00;;;;;16.66;57.62;99247.91;5074618;28;9453;-61
2021/12/28 04:26:14;;;;;;;;;3.25;3.25;;;;;16.69;57.30;99244.31;5074101;28;8774;-60
2021/12/28 04:28:39;;;;;;;;;2.67;2.67;;;;;16.68;57.22;99243.47;5074654;28;8908;-60
2021/12/28 04:31:05;;;;;;;;;4.75;4.00;;;;;16.70;57.58;99241.66;5075270;28;9320;-60
2021/12/28 04:33:30;;;;;;;;;2.50;2.50;;;;;16.69;57.37;99234.66;5074142;28;8959;-60
2021/12/28 04:35:56;;;;;;;;;5.00;3.25;;;;;16.67;57.40;99228.56;5074234;28;8825;-60
2021/12/28 04:38:21;;;;;;;;;4.00;4.00;;;;;16.75;57.55;99223.06;5074773;28;8796;-60
2021/12/28 04:40:46;;;;;;;;;2.50;1.75;;;;;16.70;57.23;99222.34;5073530;28;8786;-60
2021/12/28 04:43:13;;;;;;;;;3.00;3.00;;;;;16.72;57.30;99221.38;5074767;28;8774;-60
2021/12/28 04:45:40;;;;;;;;;2.00;2.00;;;;;16.71;57.26;99214.41;5073476;28;8794;-60
2021/12/28 04:48:07;;;;;;;;;2.00;2.00;;;;;16.69;57.27;99226.75;5074308;28;9482;-61
2021/12/28 04:50:41;;;;;;;;;4.50;3.00;;;;;16.69;57.39;99229.38;5074384;28;9355;-61
2021/12/28 04:53:09;;;;;;;;;4.00;3.00;;;;;16.68;57.61;99232.94;5073673;28;9437;-61
2021/12/28 04:55:37;;;;;;;;;2.25;2.25;;;;;16.64;57.40;99212.84;5074375;28;9401;-60
2021/12/28 04:58:03;;;;;;;;;2.00;2.00;;;;;16.71;57.35;99218.81;5073973;28;9324;-60
2021/12/28 05:00:32;;;;;;;;;2.00;2.00;;;;;16.68;57.47;99211.84;5073384;28;10092;-60
2021/12/28 05:02:57;;;;;;;;;3.25;3.00;;;;;16.67;57.62;99211.91;5073547;28;8766;-61
2021/12/28 05:05:23;;;;;;;;;2.50;2.50;;;;;16.73;57.25;99201.16;5073850;28;9395;-62
2021/12/28 05:07:48;;;;;;;;;2.75;2.75;;;;;16.63;57.62;99208.47;5073107;28;8940;-61
2021/12/28 05:10:14;;;;;;;;;4.00;4.00;;;;;16.70;57.56;99201.25;5073905;28;8877;-61
2021/12/28 05:12:39;;;;;;;;;2.25;2.25;;;;;16.74;57.36;99195.00;5074141;28;8794;-61
2021/12/28 05:15:06;;;;;;;;;3.00;2.00;;;;;16.75;57.42;99194.09;5073438;28;8786;-61
2021/12/28 05:17:32;;;;;;;;;2.00;2.00;;;;;16.66;57.60;99186.44;5073648;28;8829;-60
2021/12/28 05:19:57;;;;;;;;;2.00;2.00;;;;;16.70;57.59;99186.31;5073434;28;9466;-60
2021/12/28 05:22:22;;;;;;;;;3.50;2.00;;;;;16.77;57.08;99195.75;5071490;28;8820;-60
2021/12/28 05:24:48;;;;;;;;;2.00;1.33;;;;;16.59;57.73;99184.91;5073502;28;8784;-61
2021/12/28 05:27:13;;;;;;;;;3.00;3.00;;;;;16.65;57.68;99193.47;5073606;28;8885;-60
2021/12/28 05:29:38;;;;;;;;;3.00;3.00;;;;;16.66;57.63;99187.31;5072864;28;8887;-60
2021/12/28 05:32:04;;;;;;;;;2.33;2.33;;;;;16.73;57.26;99185.34;5073470;28;8766;-61
2021/12/28 05:34:29;;;;;;;;;2.67;2.67;;;;;16.71;57.35;99185.41;5073461;28;8786;-61
2021/12/28 05:36:55;;;;;;;;;4.00;2.33;;;;;16.65;57.75;99179.44;5072134;28;8887;-61
2021/12/28 05:39:20;;;;;;;;;3.00;3.00;;;;;16.65;57.55;99179.44;5073583;28;8804;-61
2021/12/28 05:41:46;;;;;;;;;1.00;1.00;;;;;16.68;57.42;99169.69;5073067;28;8884;-61
2021/12/28 05:44:11;;;;;;;;;3.75;3.00;;;;;16.69;57.58;99170.53;5072586;28;8782;-61
2021/12/28 05:46:39;;;;;;;;;2.00;2.00;;;;;16.70;57.60;99165.22;5073224;28;8862;-61
2021/12/28 05:49:04;;;;;;;;;3.00;3.00;;;;;16.69;57.60;99166.13;5072623;28;8805;-60
2021/12/28 05:51:30;;;;;;;;;2.00;2.00;;;;;16.76;57.26;99162.41;5073193;28;9169;-60
2021/12/28 05:54:01;;;;;;;;;2.00;2.00;;;;;16.70;57.43;99156.47;5072888;28;8758;-61
2021/12/28 05:56:26;;;;;;;;;1.00;1.00;;;;;16.71;57.48;99153.78;5072332;28;8790;-60
2021/12/28 05:58:51;;;;;;;;;2.00;2.00;;;;;16.79;57.07;99154.41;5072906;28;9209;-61
2021/12/28 06:01:17;;;;;;;;;2.33;2.33;;;;;16.71;57.54;99148.53;5073273;28;8781;-61
2021/12/28 06:03:42;;;;;;;;;2.00;2.00;;;;;16.77;57.32;99148.31;5071983;28;8862;-61
2021/12/28 06:06:07;;;;;;;;;3.67;2.67;;;;;16.69;57.41;99142.41;5073233;28;8786;-61
2021/12/28 06:08:33;;;;;;;;;1.33;1.00;;;;;16.64;57.71;99140.84;5072877;28;8806;-61
2021/12/28 06:11:00;;;;;;;;;3.00;3.00;;;;;16.62;57.52;99138.25;5072192;28;9513;-61
2021/12/28 06:13:25;;;;;;;;;1.00;1.00;;;;;16.68;57.67;99135.44;5073029;28;8769;-61
2021/12/28 06:15:51;;;;;;;;;3.00;3.00;;;;;16.77;57.13;99132.50;5072763;28;9379;-61
2021/12/28 06:18:16;;;;;;;;;4.75;3.00;;;;;16.62;57.65;99117.16;5072119;28;8944;-61
2021/12/28 06:20:41;;;;;;;;;2.33;2.00;;;;;16.66;57.75;99129.34;5072437;28;8825;-61
2021/12/28 06:23:11;;;;;;;;;2.00;2.00;;;;;16.66;57.73;99115.28;5072330;28;8770;-61
2021/12/28 06:25:40;;;;;;;;;2.75;2.75;;;;;16.68;57.50;99108.22;5071964;28;8892;-61
2021/12/28 06:28:05;;;;;;;;;3.75;2.75;;;;;16.73;57.25;99111.56;5072275;28;9357;-61
2021/12/28 06:30:31;;;;;;;;;1.50;1.50;;;;;16.68;57.57;99111.72;5072246;28;9343;-61
2021/12/28 06:32:57;;;;;;;;;2.00;2.00;;;;;16.66;57.60;99115.28;5070923;28;8945;-61
2021/12/28 06:35:22;;;;;;;;;1.75;1.75;;;;;16.67;57.63;99117.03;5072176;28;9451;-61
2021/12/28 06:37:47;;;;;;;;;2.00;2.00;;;;;16.61;57.98;99109.31;5072039;28;8758;-61
2021/12/28 06:40:13;;;;;;;;;4.00;2.50;;;;;16.66;57.76;99116.16;5071835;28;8782;-59
2021/12/28 06:42:39;;;;;;;;;2.00;2.00;;;;;16.63;57.64;99108.34;5072291;28;8777;-60
2021/12/28 06:45:05;;;;;;;;;2.00;2.00;;;;;16.63;58.01;99108.34;5072158;28;8786;-60
2021/12/28 06:47:31;;;;;;;;;1.25;1.00;;;;;16.69;57.56;99109.94;5072015;28;9480;-60
2021/12/28 06:49:56;;;;;;;;;3.75;2.00;;;;;16.72;57.39;99105.41;5071924;28;9416;-61
2021/12/28 06:52:21;;;;;;;;;3.25;2.25;;;;;16.74;57.35;99100.97;5071898;28;8928;-60
2021/12/28 06:54:47;;;;;;;;;1.50;1.50;;;;;16.68;57.82;99095.91;5072023;28;8790;-61
2021/12/28 06:57:12;;;;;;;;;2.00;2.00;;;;;16.65;57.75;99098.63;5072148;28;8793;-61
2021/12/28 06:59:43;;;;;;;;;3.00;2.00;;;;;16.69;57.71;99102.03;5071396;28;8782;-61
2021/12/28 07:02:10;;;;;;;;;2.00;2.00;;;;;16.64;57.91;99101.31;5072206;28;8770;-61
2021/12/28 07:04:36;;;;;;;;;1.00;1.00;;;;;16.62;57.91;99104.00;5071936;28;9401;-62
2021/12/28 07:07:05;;;;;;;;;3.00;1.50;;;;;16.61;58.13;99093.53;5070981;28;9417;-61
2021/12/28 07:09:30;;;;;;;;;1.00;1.00;;;;;16.65;57.75;99105.66;5071618;28;9419;-61
2021/12/28 07:11:56;;;;;;;;;3.00;3.00;;;;;16.62;57.83;99100.50;5071266;28;9243;-61
2021/12/28 07:14:21;;;;;;;;;2.00;2.00;;;;;16.70;57.53;99095.84;5071184;28;8824;-61
2021/12/28 07:16:46;;;;;;;;;2.00;2.00;;;;;16.72;57.41;99094.88;5071265;28;8805;-61
2021/12/28 07:19:18;;;;;;;;;1.00;1.00;;;;;16.72;57.68;99101.94;5071717;28;8750;-61
2021/12/28 07:21:43;;;;;;;;;1.00;1.00;;;;;16.76;57.16;99091.25;5070539;28;8843;-61
2021/12/28 07:24:09;;;;;;;;;1.75;1.75;;;;;16.67;57.63;99082.78;5071464;28;9335;-60
2021/12/28 07:26:36;;;;;;;;;2.75;2.00;;;;;16.65;57.79;99080.19;5071372;28;8774;-61
2021/12/28 07:29:03;;;;;;;;;1.00;1.00;;;;;16.66;57.69;99075.78;5070371;28;9372;-61
2021/12/28 07:31:29;;;;;;;;;1.33;1.33;;;;;16.69;57.81;99080.94;5071660;28;9347;-60
2021/12/28 07:33:55;;;;;;;;;1.00;1.00;;;;;16.71;57.42;99082.63;5071004;28;9259;-60
2021/12/28 07:36:20;;;;;;;;;2.00;2.00;;;;;16.64;57.94;99083.75;5070638;28;8888;-61
2021/12/28 07:38:46;;;;;;;;;2.50;2.00;;;;;16.63;58.06;99083.78;5071105;28;8870;-61
2021/12/28 07:41:12;;;;;;;;;2.75;2.75;;;;;16.67;58.06;99085.41;5071183;28;8814;-60
2021/12/28 07:43:37;;;;;;;;;1.75;1.75;;;;;16.65;57.79;99084.56;5070757;28;10983;-61
2021/12/28 07:46:02;;;;;;;;;2.00;2.00;;;;;16.62;58.12;99076.78;5070494;28;8793;-60
2021/12/28 07:48:28;;;;;;;;;1.50;1.50;;;;;16.73;57.46;99070.25;5070521;28;8816;-61
2021/12/28 07:50:53;;;;;;;;;2.00;2.00;;;;;16.75;57.73;99067.59;5071157;28;9556;-61
2021/12/28 07:53:18;;;;;;;;;1.25;1.25;;;;;16.68;57.65;99072.19;5071146;28;8790;-62
2021/12/28 07:55:44;;;;;;;;;2.00;2.00;;;;;16.66;57.80;99052.06;5069694;28;8786;-61
2021/12/28 07:58:09;;;;;;;;;6.33;2.67;;;;;16.62;58.15;99064.47;5071525;28;8794;-61
2021/12/28 08:00:35;;;;;;;;;3.00;3.00;;;;;16.74;57.48;99055.31;5071371;28;8805;-61
2021/12/28 08:03:03;;;;;;;;;1.00;1.00;;;;;16.77;57.49;99063.97;5070229;28;8856;-61
2021/12/28 08:05:32;;;;;;;;;2.00;2.00;;;;;16.78;57.56;99057.81;5071177;28;8785;-61
2021/12/28 08:07:57;;;;;;;;;1.67;1.67;;;;;16.69;57.74;99052.81;5070659;28;9361;-60
2021/12/28 08:10:23;;;;;;;;;2.00;2.00;;;;;16.70;57.65;99056.31;5070170;28;9382;-61
2021/12/28 08:12:51;;;;;;;;;2.25;2.00;;;;;16.71;58.12;99061.56;5070341;28;9497;-60
2021/12/28 08:15:16;;;;;;;;;1.00;1.00;;;;;16.70;57.77;99051.91;5070708;28;11420;-61
2021/12/28 08:17:42;;;;;;;;;2.00;2.00;;;;;16.73;57.69;99048.31;5069979;28;9424;-61
2021/12/28 08:20:09;;;;;;;;;2.00;2.00;;;;;16.60;57.80;99047.84;5070942;28;8785;-60
2021/12/28 08:22:36;;;;;;;;;2.25;2.00;;;;;16.59;57.90;99045.25;5070387;28;8876;-61
2021/12/28 08:25:03;;;;;;;;;1.00;1.00;;;;;16.65;58.20;99042.41;5069553;28;10237;-61
2021/12/28 08:27:28;;;;;;;;;1.00;1.00;;;;;16.69;57.71;99044.91;5070573;28;9244;-61
2021/12/28 08:29:54;;;;;;;;;1.00;1.00;;;;;16.70;57.87;99043.16;5070104;28;9468;-61
2021/12/28 08:32:19;;;;;;;;;2.00;2.00;;;;;16.68;58.09;99040.56;5070369;28;8773;-61
2021/12/28 08:34:44;;;;;;;;;3.00;3.00;;;;;16.70;57.81;99043.16;5070333;28;9518;-61
2021/12/28 08:37:09;;;;;;;;;3.00;3.00;;;;;16.74;57.70;99031.59;5070446;28;8801;-61
2021/12/28 08:39:36;;;;;;;;;1.00;1.00;;;;;16.70;57.74;99038.75;5070111;28;8804;-61
2021/12/28 08:42:01;;;;;;;;;1.00;1.00;;;;;16.61;57.89;99022.38;5070420;28;8801;-61
2021/12/28 08:44:27;;;;;;;;;2.67;2.00;;;;;16.67;57.84;99032.72;5070366;28;10013;-61
2021/12/28 08:46:56;;;;;;;;;3.00;3.00;;;;;16.70;58.07;99027.34;5069709;28;9576;-61
2021/12/28 08:49:23;;;;;;;;;3.00;2.00;;;;;16.72;57.85;99029.00;5070667;28;9366;-61
2021/12/28 08:51:49;;;;;;;;;2.00;2.00;;;;;16.71;57.80;99024.66;5068416;28;9402;-60
2021/12/28 08:54:14;;;;;;;;;1.00;1.00;;;;;16.62;58.02;99022.31;5070916;28;9324;-59
2021/12/28 08:56:39;;;;;;;;;3.00;2.00;;;;;16.65;58.22;99023.97;5071952;28;8790;-60
2021/12/28 08:59:05;;;;;;;;;2.00;2.00;;;;;16.67;58.10;99020.41;5073210;28;8806;-61
2021/12/28 09:01:30;;;;;;;;;3.25;3.00;;;;;16.73;57.77;99014.91;5074186;28;8774;-61
2021/12/28 09:03:55;;;;;;;;;2.25;2.25;;;;;16.74;58.33;99021.94;5073904;28;8774;-61
2021/12/28 09:06:21;;;;;;;;;3.50;3.50;;;;;16.82;58.41;99021.69;5073172;28;8912;-61
2021/12/28 09:08:46;;;;;;;;;5.50;4.00;;;;;16.85;59.28;99013.66;5073387;28;8813;-61
2021/12/28 09:11:11;;;;;;;;;4.25;4.25;;;;;16.88;60.19;99006.50;5074091;28;8790;-61
2021/12/28 09:13:37;;;;;;;;;7.25;6.25;;;;;16.91;60.46;99003.75;5073215;28;8816;-61
2021/12/28 09:16:03;;;;;;;;;5.25;4.00;;;;;17.00;60.70;99001.75;5073684;28;8783;-60
2021/12/28 09:18:29;;;;;;;;;8.25;7.00;;;;;17.04;61.72;99003.34;5073673;28;8797;-61
2021/12/28 09:20:57;;;;;;;;;7.25;6.25;;;;;17.10;62.08;99000.50;5072355;28;9549;-61
2021/12/28 09:23:23;;;;;;;;;10.00;8.00;;;;;17.15;62.85;98988.03;5073662;28;8774;-60
2021/12/28 09:25:48;;;;;;;;;9.33;7.67;;;;;17.12;63.62;98993.41;5073328;28;9320;-61
2021/12/28 09:28:14;;;;;;;;;6.25;6.25;;;;;17.11;64.16;98991.69;5072862;28;8829;-61
2021/12/28 09:30:42;;;;;;;;;8.25;7.50;;;;;17.01;64.40;98995.56;5071149;28;8900;-61
2021/12/28 09:33:08;;;;;;;;;5.50;4.50;;;;;16.93;64.90;98990.53;5073836;28;8766;-60
2021/12/28 09:35:33;;;;;;;;;4.50;4.50;;;;;16.86;64.84;98989.03;5072313;28;9590;-61
2021/12/28 09:37:59;;;;;;;;;5.50;5.00;;;;;16.85;64.63;98990.81;5073246;28;10319;-61
2021/12/28 09:40:24;;;;;;;;;5.50;5.00;;;;;16.82;64.74;98982.13;5073291;28;8793;-61
2021/12/28 09:42:49;;;;;;;;;3.67;3.67;;;;;16.78;64.61;98983.16;5072406;28;8802;-61
2021/12/28 09:45:15;;;;;;;;;7.00;6.00;;;;;16.80;64.54;98974.28;5073579;28;8774;-61
2021/12/28 09:47:44;;;;;;;;;5.50;3.00;;;;;16.80;64.17;98973.41;5073153;28;9545;-62
2021/12/28 09:50:14;;;;;;;;;6.00;4.00;;;;;16.80;64.16;98970.78;5072741;28;9568;-61
2021/12/28 09:52:47;;;;;;;;;7.50;6.50;;;;;16.82;64.02;98972.47;5073128;28;9504;-61
2021/12/28 09:55:18;;;;;;;;;4.50;4.50;;;;;16.78;64.13;98956.78;5072518;28;9556;-61
2021/12/28 09:57:45;;;;;;;;;7.75;4.75;;;;;16.74;64.08;98956.03;5072734;28;9510;-61
2021/12/28 10:00:13;;;;;;;;;4.50;4.50;;;;;16.74;64.14;98952.53;5072997;28;9781;-62
2021/12/28 10:02:38;;;;;;;;;6.00;6.00;;;;;16.72;64.33;98957.00;5072498;28;9478;-61
2021/12/28 10:05:11;;;;;;;;;1.00;1.00;;;;;16.72;64.39;98949.94;5073197;28;9468;-61
2021/12/28 10:07:43;;;;;;;;;3.00;3.00;;;;;16.76;63.64;98948.94;5072199;28;8786;-62
2021/12/28 10:10:09;;;;;;;;;4.00;4.00;;;;;16.73;63.78;98943.78;5072243;28;9412;-61
2021/12/28 10:12:49;;;;;;;;;4.50;4.00;;;;;16.71;64.00;98950.88;5073299;28;9316;-61
2021/12/28 10:15:18;;;;;;;;;6.50;5.00;;;;;16.75;63.63;98949.00;5072629;28;11430;-61
2021/12/28 10:17:45;;;;;;;;;6.00;6.00;;;;;16.70;63.69;98943.88;5071711;28;9627;-61
2021/12/28 10:20:19;;;;;;;;;7.50;5.75;;;;;16.75;63.56;98935.81;5072541;28;9536;-61
2021/12/28 10:22:53;;;;;;;;;4.75;4.25;;;;;16.72;63.45;98938.56;5071878;28;9633;-60
2021/12/28 10:25:27;;;;;;;;;4.00;3.00;;;;;16.79;63.16;98933.03;5071649;28;9555;-61
2021/12/28 10:28:06;;;;;;;;;4.00;4.00;;;;;16.73;63.86;98942.91;5072176;28;9503;-61
2021/12/28 10:30:35;;;;;;;;;5.50;5.00;;;;;16.76;63.31;98927.84;5071376;28;9608;-61
2021/12/28 10:33:06;;;;;;;;;3.00;3.00;;;;;16.68;63.56;98929.91;5072062;28;10422;-60
2021/12/28 10:35:46;;;;;;;;;5.50;4.00;;;;;16.72;63.57;98923.59;5072570;28;9648;-60
2021/12/28 10:38:18;;;;;;;;;5.00;4.00;;;;;16.72;63.45;98917.50;5065206;28;9651;-60
2021/12/28 10:40:47;;;;;;;;;2.00;2.00;;;;;16.69;63.35;98918.44;5072201;28;10195;-61
2021/12/28 10:43:16;;;;;;;;;4.75;4.00;;;;;16.80;62.99;98913.66;5072140;28;9406;-61
2021/12/28 10:45:44;;;;;;;;;3.00;3.00;;;;;16.83;63.08;98921.44;5071354;28;9546;-60
2021/12/28 10:48:17;;;;;;;;;3.75;3.25;;;;;16.81;63.03;98906.63;5071932;28;9567;-60
2021/12/28 10:50:46;;;;;;;;;3.00;3.00;;;;;16.76;63.06;98898.00;5071797;28;9369;-60
2021/12/28 10:53:20;;;;;;;;;4.25;4.25;;;;;16.76;62.86;98900.63;5071455;28;9494;-61
2021/12/28 10:55:56;;;;;;;;;3.25;2.00;;;;;16.70;63.39;98891.19;5071351;28;10398;-61
2021/12/28 10:58:31;;;;;;;;;4.25;3.75;;;;;16.69;63.42;98889.44;5071610;28;9425;-61
2021/12/28 11:01:10;;;;;;;;;3.00;3.00;;;;;16.71;63.36;98890.28;5071709;28;9409;-61
2021/12/28 11:03:40;;;;;;;;;3.50;2.75;;;;;16.71;63.21;98890.28;5070485;28;9557;-61
2021/12/28 11:06:26;;;;;;;;;2.75;2.75;;;;;16.72;63.16;98878.78;5070783;28;9568;-61
2021/12/28 11:08:55;;;;;;;;;2.33;2.33;;;;;16.75;63.13;98883.13;5071406;28;9508;-61
2021/12/28 11:11:24;;;;;;;;;1.33;1.33;;;;;16.69;63.35;98881.53;5071942;28;9311;-61
2021/12/28 11:13:53;;;;;;;;;3.00;3.00;;;;;16.71;63.21;98876.22;5070597;28;9188;-60
2021/12/28 11:16:26;;;;;;;;;2.75;2.75;;;;;16.78;62.94;98880.38;5071406;28;10000;-61
2021/12/28 11:18:54;;;;;;;;;3.00;3.00;;;;;16.78;62.73;98875.09;5071304;28;9328;-61
2021/12/28 11:21:25;;;;;;;;;3.00;2.25;;;;;16.77;62.55;98876.88;5071000;28;9254;-60
2021/12/28 11:23:53;;;;;;;;;2.50;2.25;;;;;16.70;62.76;98878.00;5071153;28;9395;-61
2021/12/28 11:26:25;;;;;;;;;3.25;3.25;;;;;16.69;62.89;98868.38;5071424;28;9439;-61
2021/12/28 11:29:01;;;;;;;;;3.33;3.33;;;;;16.65;63.01;98861.47;5070318;28;9466;-61
2021/12/28 11:31:37;;;;;;;;;3.00;3.00;;;;;16.72;62.93;98856.88;5071575;28;10075;-61
2021/12/28 11:34:07;;;;;;;;;3.50;3.50;;;;;16.71;62.70;98863.06;5062765;28;9580;-61
2021/12/28 11:36:39;;;;;;;;;1.00;1.00;;;;;16.72;62.77;98854.25;5071193;28;9511;-61
2021/12/28 11:39:08;;;;;;;;;4.00;4.00;;;;;16.70;62.58;98849.03;5071164;28;9457;-61
2021/12/28 11:41:34;;;;;;;;;2.67;2.67;;;;;16.72;62.55;98849.81;5070627;28;9427;-61
2021/12/28 11:44:01;;;;;;;;;3.00;3.00;;;;;16.67;62.79;98843.88;5070950;28;9333;-61